KCNM/CNM METAR and TAF weather

Enter ICAO airport designator
Station Type Date Time Source
KCNM METAR 2021/07/30 07:53 UTC NOAA

KCNM 300753Z AUTO 00000KT 10SM CLR 23/13 A3014 RMK AO2 SLP145 T02330133


Station Type Date Time Source
KCNM Decoded METAR 2021/07/30 07:53 UTC NOAA

CARLSBAD CAVERN CITY, NM, United States (KCNM) 32-20N 104-16W 985M
Jul 30, 2021 - 03:53 AM EDT / 2021.07.30 0753 UTC
Wind: Calm:0
Visibility: 10 mile(s):0
Sky conditions: clear
Temperature: 73.9 F (23.3 C)
Dew Point: 55.9 F (13.3 C)
Relative Humidity: 53%
Pressure (altimeter): 30.14 in. Hg (1020 hPa)
ob: KCNM 300753Z AUTO 00000KT 10SM CLR 23/13 A3014 RMK AO2 SLP145 T02330133
cycle: 8

Station Type Date Time Source
KCNM TAF 2021/07/30 06:30 UTC NOAA

TAF KCNM 300526Z 3006/3106 17005KT P6SM FEW100 SCT250

Example: see airport list